Time;durP1;ratioP1;P1;durP2;ratioP2;P2;SDS_P1;SDS_P2;PMS_P1;PMS_P2;Temp;Humidity;BMP_temperature;BMP_pressure;BME280_temperature;BME280_humidity;BME280_pressure;Samples;Min_cycle;Max_cycle;Signal;HPM_P1;HPM_P2
2019/04/03 00:01:33;;;;;;;8.2;4.3;;;;;;;11.27;50.92969;928.2794;;;;
2019/04/03 00:04:00;;;;;;;6.5;4.4;;;;;;;11.03;51.25586;928.2765;;;;
2019/04/03 00:06:25;;;;;;;8;4.1;;;;;;;10.89;52.18652;928.2455;;;;
2019/04/03 00:08:50;;;;;;;6.3;4.4;;;;;;;10.84;52.52344;928.1074;;;;
2019/04/03 00:11:15;;;;;;;5.9;4.6;;;;;;;11.05;52.62891;928.113;;;;
2019/04/03 00:13:41;;;;;;;5.5;4.5;;;;;;;11.23;51.58594;928.1443;;;;
2019/04/03 00:16:06;;;;;;;8.8;4.4;;;;;;;11.59;51.81348;928.188;;;;
2019/04/03 00:18:31;;;;;;;7.6;4.6;;;;;;;11.7;49.97168;928.2181;;;;
2019/04/03 00:20:56;;;;;;;5.6;4.5;;;;;;;11.66;50.40234;928.2265;;;;
2019/04/03 00:23:21;;;;;;;5.7;4.2;;;;;;;11.49;50.16504;928.1955;;;;
2019/04/03 00:25:46;;;;;;;5;4.2;;;;;;;11.43;50.27246;928.1936;;;;
2019/04/03 00:28:11;;;;;;;6.2;4.1;;;;;;;11.56;50.17285;928.1532;;;;
2019/04/03 00:30:36;;;;;;;6.3;4.8;;;;;;;11.68;50.74805;928.1944;;;;
2019/04/03 00:33:04;;;;;;;7.7;4.8;;;;;;;11.79;50.9082;928.0978;;;;
2019/04/03 00:35:27;;;;;;;7.3;5.2;;;;;;;11.85;51.11328;928.1411;;;;
2019/04/03 00:37:52;;;;;;;7.4;5.4;;;;;;;11.74;50.80176;928.1323;;;;
2019/04/03 00:40:17;;;;;;;7.1;4.6;;;;;;;11.47;50.86035;928.147;;;;
2019/04/03 00:42:42;;;;;;;5.8;4.5;;;;;;;11.46;50.74512;928.092;;;;
2019/04/03 00:45:24;;;;;;;6.6;4.6;;;;;;;11.72;50.27246;928.0536;;;;
2019/04/03 00:47:49;;;;;;;6.1;4.7;;;;;;;11.96;50.26563;928.0697;;;;
2019/04/03 00:50:14;;;;;;;6.3;4.3;;;;;;;11.98;49.9248;928.1005;;;;
2019/04/03 00:52:40;;;;;;;9.1;4.7;;;;;;;11.63;50.21484;927.9885;;;;
2019/04/03 00:55:05;;;;;;;6.3;4.6;;;;;;;11.76;49.74902;928.003;;;;
2019/04/03 00:57:30;;;;;;;7.4;4.7;;;;;;;11.64;50.70996;928.0633;;;;
2019/04/03 00:59:55;;;;;;;7.5;4.4;;;;;;;11.52;50.78711;928.0683;;;;
2019/04/03 01:02:20;;;;;;;8.7;4.6;;;;;;;11.67;50.55371;928.0126;;;;
2019/04/03 01:04:46;;;;;;;6.6;4.4;;;;;;;11.7;49.16992;927.9717;;;;
2019/04/03 01:07:12;;;;;;;6;4.6;;;;;;;11.89;50.13086;927.9756;;;;
2019/04/03 01:09:38;;;;;;;8.4;4.3;;;;;;;12.02;49.79102;927.9598;;;;
2019/04/03 01:12:03;;;;;;;7;4.9;;;;;;;12.04;51.31641;928.0179;;;;
2019/04/03 01:14:28;;;;;;;6.8;4.8;;;;;;;12.05;50.6084;927.9395;;;;
2019/04/03 01:16:53;;;;;;;7.6;4.3;;;;;;;11.85;49.69141;927.9802;;;;
2019/04/03 01:19:19;;;;;;;5.9;4.4;;;;;;;11.4;50.52051;927.9417;;;;
2019/04/03 01:21:46;;;;;;;7.1;4.6;;;;;;;11.32;51.09473;927.9044;;;;
2019/04/03 01:24:09;;;;;;;7.7;4.3;;;;;;;10.97;52.16309;927.8409;;;;
2019/04/03 01:26:34;;;;;;;6.8;4.4;;;;;;;11.06;52.13965;927.8269;;;;
2019/04/03 01:28:59;;;;;;;6.2;4.4;;;;;;;11.34;52.10352;927.8978;;;;
2019/04/03 01:31:24;;;;;;;7;4.7;;;;;;;11.38;52.38379;927.8886;;;;
2019/04/03 01:33:50;;;;;;;8.4;4.7;;;;;;;11.53;51.7832;927.8976;;;;
2019/04/03 01:36:15;;;;;;;6.3;4.9;;;;;;;11.68;50.8623;927.8253;;;;
2019/04/03 01:38:40;;;;;;;5.7;4.8;;;;;;;11.6;50.7041;927.7406;;;;
2019/04/03 01:41:05;;;;;;;6.9;4.9;;;;;;;11.46;50.82422;927.7525;;;;
2019/04/03 01:43:30;;;;;;;6.2;4.8;;;;;;;11.58;51.1709;927.7463;;;;
2019/04/03 01:45:56;;;;;;;8;4.5;;;;;;;11.67;50.82715;927.7623;;;;
2019/04/03 01:48:21;;;;;;;5.8;4.4;;;;;;;11.67;50.82715;927.6858;;;;
2019/04/03 01:50:47;;;;;;;5.9;4.5;;;;;;;11.67;50.38086;927.673;;;;
2019/04/03 01:53:12;;;;;;;8.7;4.7;;;;;;;11.68;50.42773;927.6467;;;;
2019/04/03 01:55:38;;;;;;;6.4;4.7;;;;;;;11.38;51.02246;927.5992;;;;
2019/04/03 01:58:03;;;;;;;7.6;4.6;;;;;;;10.74;52.67188;927.6206;;;;
2019/04/03 02:00:28;;;;;;;5.4;4.6;;;;;;;10.79;53.05371;927.5988;;;;
2019/04/03 02:02:53;;;;;;;6.9;4.7;;;;;;;11.24;54.2998;927.616;;;;
2019/04/03 02:05:19;;;;;;;6.7;4.8;;;;;;;11.32;54.20605;927.6024;;;;
2019/04/03 02:07:44;;;;;;;6.3;5.1;;;;;;;11.33;53.89844;927.5249;;;;
2019/04/03 02:10:09;;;;;;;6.6;4.8;;;;;;;11.14;53.89844;927.58;;;;
2019/04/03 02:12:34;;;;;;;5.5;4.7;;;;;;;10.96;54.42383;927.5114;;;;
2019/04/03 02:14:59;;;;;;;6.7;4.8;;;;;;;11.03;55.2793;927.5628;;;;
2019/04/03 02:17:24;;;;;;;8.6;5.3;;;;;;;11.24;54.83594;927.4462;;;;
2019/04/03 02:19:49;;;;;;;7.9;5.1;;;;;;;11.2;53.84668;927.3954;;;;
2019/04/03 02:22:15;;;;;;;7.2;5;;;;;;;11.12;53.74707;927.3865;;;;
2019/04/03 02:24:40;;;;;;;6.1;5.1;;;;;;;11.2;54.38477;927.3699;;;;
2019/04/03 02:27:05;;;;;;;7.7;5;;;;;;;10.91;54.76074;927.3892;;;;
2019/04/03 02:29:30;;;;;;;6.9;4.8;;;;;;;10.99;54.79395;927.3295;;;;
2019/04/03 02:31:56;;;;;;;6.5;4.7;;;;;;;11;53.98242;927.2609;;;;
2019/04/03 02:34:21;;;;;;;6.5;4.7;;;;;;;11.04;54.2168;927.2855;;;;
2019/04/03 02:36:46;;;;;;;10.2;5.4;;;;;;;11.17;53.40918;927.3049;;;;
2019/04/03 02:39:12;;;;;;;9.1;5.2;;;;;;;11.21;53.14063;927.2661;;;;
2019/04/03 02:41:37;;;;;;;9.4;5.2;;;;;;;11.18;52.95313;927.3;;;;
2019/04/03 02:44:02;;;;;;;7.7;5.2;;;;;;;11.09;52.90918;927.1694;;;;
2019/04/03 02:46:27;;;;;;;7.2;5.4;;;;;;;10.98;53.37598;927.1559;;;;
2019/04/03 02:48:52;;;;;;;6.7;5.3;;;;;;;10.84;53.68945;927.1343;;;;
2019/04/03 02:51:17;;;;;;;10.6;5.4;;;;;;;10.86;53.64648;927.166;;;;
2019/04/03 02:53:43;;;;;;;8.2;5;;;;;;;10.83;54.06543;927.2204;;;;
2019/04/03 02:56:10;;;;;;;7.1;5;;;;;;;10.94;54.07813;927.1612;;;;
2019/04/03 02:58:35;;;;;;;6.8;5.1;;;;;;;10.94;54.1123;927.1397;;;;
2019/04/03 03:01:00;;;;;;;6.9;5.1;;;;;;;10.97;54.11621;927.09;;;;
2019/04/03 03:03:25;;;;;;;5.9;5.3;;;;;;;11.03;53.50781;927.0147;;;;
2019/04/03 03:05:50;;;;;;;15.7;5.3;;;;;;;11;53.83496;926.9758;;;;
2019/04/03 03:08:15;;;;;;;7.1;5.1;;;;;;;10.93;54.52148;927.0012;;;;
2019/04/03 03:10:40;;;;;;;12.5;5.6;;;;;;;10.89;54.55273;926.9244;;;;
2019/04/03 03:13:06;;;;;;;11.2;5.5;;;;;;;10.8;55.05469;926.9433;;;;
2019/04/03 03:15:31;;;;;;;6.3;5;;;;;;;10.67;54.84375;926.9875;;;;
2019/04/03 03:17:56;;;;;;;6.5;4.9;;;;;;;10.75;54.86426;926.9366;;;;
2019/04/03 03:20:21;;;;;;;7.9;5;;;;;;;10.54;55.2168;926.8873;;;;
2019/04/03 03:22:46;;;;;;;8.8;5.3;;;;;;;10.42;55.55371;926.8208;;;;
2019/04/03 03:25:13;;;;;;;10.5;5.3;;;;;;;10.37;55.86816;926.8304;;;;
2019/04/03 03:27:38;;;;;;;8.4;4.7;;;;;;;10.22;56.11035;926.7752;;;;
2019/04/03 03:30:03;;;;;;;5.9;5.1;;;;;;;10.08;56.59375;926.7224;;;;
2019/04/03 03:32:28;;;;;;;13;5;;;;;;;10.03;56.58887;926.6933;;;;
2019/04/03 03:34:53;;;;;;;8.7;4.8;;;;;;;10;56.75488;926.6838;;;;
2019/04/03 03:37:18;;;;;;;9.8;6.9;;;;;;;9.88;57.25293;926.6719;;;;
2019/04/03 03:39:46;;;;;;;12.8;7.5;;;;;;;9.43;59.11719;926.6494;;;;
2019/04/03 03:42:08;;;;;;;11.4;6.4;;;;;;;9.47;59.15625;926.6277;;;;
2019/04/03 03:44:33;;;;;;;14.4;6.2;;;;;;;9.63;58.73438;926.5508;;;;
2019/04/03 03:46:58;;;;;;;10.4;6.2;;;;;;;9.78;58.13867;926.5856;;;;
2019/04/03 03:49:23;;;;;;;11.2;6;;;;;;;9.71;58.64258;926.6099;;;;
2019/04/03 03:51:48;;;;;;;9.1;5.9;;;;;;;9.95;57.77441;926.6642;;;;
2019/04/03 03:54:14;;;;;;;9;6;;;;;;;10.07;57.24316;926.5873;;;;
2019/04/03 03:56:40;;;;;;;11.3;6.2;;;;;;;10;57.34766;926.6288;;;;
2019/04/03 03:59:05;;;;;;;7.4;5.5;;;;;;;9.65;58.42969;926.5873;;;;
2019/04/03 04:02:41;;;;;;;7.7;5.1;;;;;;;9.46;59.00684;926.5825;;;;
2019/04/03 04:05:06;;;;;;;8.6;5.3;;;;;;;9.26;59.58301;926.5109;;;;
2019/04/03 04:07:31;;;;;;;9.8;5.6;;;;;;;9.14;61.59277;926.5652;;;;
2019/04/03 04:09:56;;;;;;;10.7;6.5;;;;;;;9.1;62.33789;926.5789;;;;
2019/04/03 04:12:21;;;;;;;11.3;7.2;;;;;;;9.2;61.87402;926.5681;;;;
2019/04/03 04:14:46;;;;;;;13.3;6.3;;;;;;;9.27;60.84863;926.6071;;;;
2019/04/03 04:17:12;;;;;;;12.3;6.1;;;;;;;9.32;60.01172;926.6822;;;;
2019/04/03 04:19:37;;;;;;;13.4;5.8;;;;;;;9.06;60.49902;926.6172;;;;
2019/04/03 04:22:02;;;;;;;12.3;6;;;;;;;9.15;60.29785;926.5938;;;;
2019/04/03 04:24:27;;;;;;;11.8;6.3;;;;;;;9.37;59.57715;926.6422;;;;
2019/04/03 04:26:55;;;;;;;8.9;5.7;;;;;;;9.23;59.81738;926.6541;;;;
2019/04/03 04:29:17;;;;;;;13.7;6.2;;;;;;;9.13;60.22559;926.6177;;;;
2019/04/03 04:31:43;;;;;;;11.5;6.4;;;;;;;8.91;61.02441;926.6071;;;;
2019/04/03 04:34:08;;;;;;;10.2;6.6;;;;;;;9.16;60.75293;926.5675;;;;
2019/04/03 04:36:36;;;;;;;12.9;6.2;;;;;;;9.02;60.6416;926.5919;;;;
2019/04/03 04:38:58;;;;;;;8;6;;;;;;;9.05;60.69238;926.6473;;;;
2019/04/03 04:41:27;;;;;;;9.7;6.2;;;;;;;8.73;61.72656;926.605;;;;
2019/04/03 04:43:48;;;;;;;13.1;6.3;;;;;;;8.69;61.91504;926.5455;;;;
2019/04/03 04:46:14;;;;;;;7.8;5.2;;;;;;;8.74;61.42285;926.5232;;;;
2019/04/03 04:48:39;;;;;;;15;5.8;;;;;;;8.5;62.51172;926.5489;;;;
2019/04/03 04:51:04;;;;;;;11.1;5.7;;;;;;;8.51;62.20898;926.4838;;;;
2019/04/03 04:53:31;;;;;;;13.5;6.2;;;;;;;8.55;62.13281;926.4846;;;;
2019/04/03 04:55:56;;;;;;;13;6.2;;;;;;;8.53;62.39258;926.5282;;;;
2019/04/03 04:58:21;;;;;;;11.6;6.2;;;;;;;8.44;62.93652;926.5086;;;;
2019/04/03 05:00:46;;;;;;;10.1;6.9;;;;;;;8.47;64.37109;926.6029;;;;
2019/04/03 05:03:12;;;;;;;16.4;7.8;;;;;;;8.56;63.55664;926.5591;;;;
2019/04/03 05:05:37;;;;;;;13.4;7.3;;;;;;;8.69;62.59766;926.4869;;;;
2019/04/03 05:08:02;;;;;;;13.2;7.7;;;;;;;8.74;62.02539;926.5867;;;;
2019/04/03 05:10:27;;;;;;;24.2;7.6;;;;;;;8.57;62.35156;926.6011;;;;
2019/04/03 05:12:53;;;;;;;13.5;6.8;;;;;;;8.45;62.99512;926.5792;;;;
2019/04/03 05:15:18;;;;;;;10.9;6.4;;;;;;;8.27;63.23926;926.5256;;;;
2019/04/03 05:17:43;;;;;;;16.2;6.8;;;;;;;8.42;62.9209;926.5023;;;;
2019/04/03 05:20:08;;;;;;;22.2;6.9;;;;;;;8.46;62.74609;926.4934;;;;
2019/04/03 05:22:33;;;;;;;11.3;6.4;;;;;;;8.64;62.41992;926.5465;;;;
2019/04/03 05:24:58;;;;;;;11.7;6.1;;;;;;;8.79;61.92969;926.4929;;;;
2019/04/03 05:27:23;;;;;;;11.2;5.7;;;;;;;8.71;61.75879;926.5137;;;;
2019/04/03 05:29:49;;;;;;;14.9;6.2;;;;;;;8.68;62.08398;926.4789;;;;
2019/04/03 05:32:14;;;;;;;16.8;5.4;;;;;;;8.81;60.97754;926.5074;;;;
2019/04/03 05:34:39;;;;;;;12.4;6.5;;;;;;;8.76;62.23242;926.5549;;;;
2019/04/03 05:37:04;;;;;;;9.8;6.4;;;;;;;9.05;60.90918;926.5203;;;;
2019/04/03 05:39:29;;;;;;;12.2;6;;;;;;;9.24;59.93262;926.4578;;;;
2019/04/03 05:41:54;;;;;;;12.9;6;;;;;;;9.26;61.31348;926.3752;;;;
2019/04/03 05:44:20;;;;;;;8.9;6.2;;;;;;;9.23;62.74316;926.4762;;;;
2019/04/03 05:46:45;;;;;;;10.9;5.6;;;;;;;9.2;60.56641;926.4275;;;;
2019/04/03 05:49:10;;;;;;;24.1;11;;;;;;;9.08;60.87891;926.4662;;;;
2019/04/03 05:51:35;;;;;;;24.4;13.8;;;;;;;9.2;61.02051;926.4197;;;;
2019/04/03 05:54:00;;;;;;;25.2;14.6;;;;;;;9.28;60.00684;926.3814;;;;
2019/04/03 05:56:25;;;;;;;24.3;12.5;;;;;;;9.2;60.04297;926.3219;;;;
2019/04/03 05:58:53;;;;;;;20;12.5;;;;;;;9.18;60.24414;926.3156;;;;
2019/04/03 06:01:16;;;;;;;17.4;9.3;;;;;;;9.16;60.70801;926.3055;;;;
2019/04/03 06:03:43;;;;;;;20.7;7.5;;;;;;;9.36;60.10938;926.3214;;;;
2019/04/03 06:06:06;;;;;;;12.3;6.8;;;;;;;9.75;58.81836;926.2623;;;;
2019/04/03 06:08:31;;;;;;;21.2;7.1;;;;;;;10.34;57.39355;926.1926;;;;
2019/04/03 06:10:56;;;;;;;20.6;7.3;;;;;;;11.69;54.0918;926.1483;;;;
2019/04/03 06:13:21;;;;;;;19.9;7.3;;;;;;;13.13;49.81445;926.0691;;;;
2019/04/03 06:15:47;;;;;;;22.6;6.4;;;;;;;14.56;45.75;926.0974;;;;
2019/04/03 06:18:12;;;;;;;22.4;6.9;;;;;;;15.57;42.97949;926.1105;;;;
2019/04/03 06:20:37;;;;;;;22.7;6.7;;;;;;;16.58;39.32813;926.0123;;;;
2019/04/03 06:23:02;;;;;;;15;5.3;;;;;;;14.98;41.86035;926.0557;;;;
2019/04/03 06:25:27;;;;;;;13.8;5.1;;;;;;;14.97;42.55078;925.9847;;;;
2019/04/03 06:27:52;;;;;;;11.9;4.7;;;;;;;14.3;44.08691;926.0497;;;;
2019/04/03 06:30:21;;;;;;;13.6;4.7;;;;;;;14.73;43.85352;925.9426;;;;
2019/04/03 06:32:46;;;;;;;9.4;4.1;;;;;;;14.9;42.42871;925.9001;;;;
2019/04/03 06:35:11;;;;;;;17.3;4.6;;;;;;;14.69;42.59277;925.8589;;;;
2019/04/03 06:37:36;;;;;;;8.3;4.4;;;;;;;14.95;42.6748;925.7313;;;;
2019/04/03 06:40:01;;;;;;;8.6;4.2;;;;;;;14.64;43.02539;925.7634;;;;
2019/04/03 06:42:26;;;;;;;10.7;4.8;;;;;;;14.08;45.54883;925.7667;;;;
2019/04/03 06:44:51;;;;;;;9.5;5;;;;;;;15.08;43.41504;925.7272;;;;
2019/04/03 06:47:16;;;;;;;9.5;4.5;;;;;;;14.98;43.90137;925.6848;;;;
2019/04/03 06:49:41;;;;;;;9.5;4.2;;;;;;;15.35;42.04492;925.6305;;;;
2019/04/03 06:52:07;;;;;;;11.3;4.5;;;;;;;14.75;43.5791;925.7227;;;;
2019/04/03 06:54:32;;;;;;;11.8;4.5;;;;;;;14.84;44.44141;925.7277;;;;
2019/04/03 06:56:57;;;;;;;14.2;4;;;;;;;15.12;42.17383;925.7131;;;;
2019/04/03 06:59:22;;;;;;;8.8;4.2;;;;;;;15.13;41.41406;925.6638;;;;
2019/04/03 07:01:47;;;;;;;4.1;3.4;;;;;;;14.97;41.61621;925.6591;;;;
2019/04/03 07:04:12;;;;;;;6.4;3.2;;;;;;;14.64;42.15039;925.7199;;;;
2019/04/03 07:06:37;;;;;;;8.5;3.3;;;;;;;14.79;42.25684;925.6446;;;;
2019/04/03 07:09:06;;;;;;;5.9;3.4;;;;;;;15.28;41.54297;925.5756;;;;
2019/04/03 07:11:28;;;;;;;7.4;3.5;;;;;;;14.81;42.23633;925.5647;;;;
2019/04/03 07:13:53;;;;;;;6.8;3.3;;;;;;;14.68;42.73047;925.4802;;;;
2019/04/03 07:16:23;;;;;;;5.7;3.5;;;;;;;15.12;41.59668;925.5454;;;;
2019/04/03 07:18:46;;;;;;;6.5;3.5;;;;;;;16.04;40.04199;925.5002;;;;
2019/04/03 07:21:11;;;;;;;8.1;3.3;;;;;;;16.17;39.37109;925.4863;;;;
2019/04/03 07:23:36;;;;;;;6.1;3.2;;;;;;;16.91;37.82715;925.4539;;;;
2019/04/03 07:26:01;;;;;;;4.6;3;;;;;;;16.63;37.31738;925.4444;;;;
2019/04/03 07:28:27;;;;;;;5.9;2.8;;;;;;;17.15;36.66602;925.4673;;;;
2019/04/03 07:30:52;;;;;;;5.4;3.1;;;;;;;17.62;34.8252;925.4175;;;;
2019/04/03 07:33:17;;;;;;;7.3;2.9;;;;;;;17.62;34.6748;925.3312;;;;
2019/04/03 07:35:43;;;;;;;5.5;3.1;;;;;;;17.85;34.16992;925.3256;;;;
2019/04/03 07:38:08;;;;;;;4.4;2.6;;;;;;;19.29;32.40625;925.2737;;;;
2019/04/03 07:40:33;;;;;;;5.8;2.6;;;;;;;19.15;31.35938;925.2605;;;;
2019/04/03 07:42:58;;;;;;;5.4;2.7;;;;;;;19.34;31.47852;925.1636;;;;
2019/04/03 07:45:23;;;;;;;5.3;2.5;;;;;;;19.92;29.90918;925.0765;;;;
2019/04/03 07:47:49;;;;;;;3.7;2.7;;;;;;;20.36;28.44531;925.0554;;;;
2019/04/03 07:50:17;;;;;;;6.4;2.7;;;;;;;20.08;28.84766;924.9992;;;;
2019/04/03 07:52:39;;;;;;;11.7;3.5;;;;;;;21.03;28.61719;925.0073;;;;
2019/04/03 07:55:08;;;;;;;4.4;2.6;;;;;;;21.97;26.97852;925.0103;;;;
2019/04/03 07:57:33;;;;;;;4.9;2.7;;;;;;;23.24;26.44434;924.9644;;;;
2019/04/03 07:59:59;;;;;;;6.2;2.5;;;;;;;22.28;26.85547;924.9136;;;;
2019/04/03 08:02:24;;;;;;;3.8;2.3;;;;;;;22.78;24.89063;924.8365;;;;
2019/04/03 08:04:49;;;;;;;3.7;2.2;;;;;;;23.68;23.30566;924.822;;;;
2019/04/03 08:07:14;;;;;;;4.2;2.2;;;;;;;24.42;21.61133;924.7489;;;;
2019/04/03 08:09:39;;;;;;;5.9;2.5;;;;;;;23.41;23.57324;924.6672;;;;
2019/04/03 08:12:04;;;;;;;2.3;2.1;;;;;;;25.04;21.44141;924.6731;;;;
2019/04/03 08:14:29;;;;;;;4.9;1.9;;;;;;;25.26;20.40039;924.6789;;;;
2019/04/03 08:16:54;;;;;;;6.1;2.1;;;;;;;24.46;22.08496;924.6646;;;;
2019/04/03 08:19:19;;;;;;;4.6;1.6;;;;;;;25.85;20.65234;924.64;;;;
2019/04/03 08:21:44;;;;;;;2;1.3;;;;;;;25.56;19.72949;924.6032;;;;
2019/04/03 08:24:10;;;;;;;4.7;1.6;;;;;;;25.46;19.16992;924.5869;;;;
2019/04/03 08:26:37;;;;;;;5.1;1.7;;;;;;;26.3;19.99902;924.586;;;;
2019/04/03 08:29:00;;;;;;;4.3;1.6;;;;;;;26.76;19.36816;924.5785;;;;
2019/04/03 08:31:26;;;;;;;7.6;1.8;;;;;;;26.95;19.25781;924.5556;;;;
2019/04/03 08:33:51;;;;;;;4.8;1.7;;;;;;;26.48;19.46191;924.4451;;;;
2019/04/03 08:36:17;;;;;;;5.8;1.8;;;;;;;28.58;17.40039;924.4131;;;;
2019/04/03 08:38:41;;;;;;;8.6;1.5;;;;;;;27.73;17.29688;924.3483;;;;
2019/04/03 08:41:06;;;;;;;2.1;1.2;;;;;;;23.76;21.09668;924.3317;;;;
2019/04/03 08:43:31;;;;;;;1.5;1.2;;;;;;;23.15;21.8916;924.3245;;;;
2019/04/03 08:45:56;;;;;;;4.2;1.1;;;;;;;25.6;18.21875;924.3225;;;;
2019/04/03 08:48:22;;;;;;;2.6;1.2;;;;;;;25.06;19.69531;924.2925;;;;
2019/04/03 08:50:47;;;;;;;2.7;1.1;;;;;;;24.56;18.56543;924.2944;;;;
2019/04/03 08:53:12;;;;;;;2.2;1.2;;;;;;;26.22;18.46875;924.3005;;;;
2019/04/03 08:55:37;;;;;;;2.8;1.3;;;;;;;27.09;16.97559;924.1389;;;;
2019/04/03 08:58:02;;;;;;;4.6;1.6;;;;;;;27.29;17.17285;924.0933;;;;
2019/04/03 09:00:30;;;;;;;2.3;1.2;;;;;;;27.22;17.3125;924.1594;;;;
2019/04/03 09:02:53;;;;;;;4.5;1.3;;;;;;;27.75;16.41895;924.0759;;;;
2019/04/03 09:05:18;;;;;;;2.3;1.5;;;;;;;26.09;19.00781;924.0797;;;;
2019/04/03 09:07:43;;;;;;;2.6;1.2;;;;;;;26.13;16.95117;923.9892;;;;
2019/04/03 09:10:08;;;;;;;1.2;1.1;;;;;;;26.04;16.14355;923.8061;;;;
2019/04/03 09:12:33;;;;;;;1.5;1;;;;;;;26.89;16.56543;923.8102;;;;
2019/04/03 09:14:58;;;;;;;1.9;1.2;;;;;;;25.62;18.78613;923.8279;;;;
2019/04/03 09:17:24;;;;;;;2.2;1.1;;;;;;;26.19;17.78125;923.7185;;;;
2019/04/03 09:19:49;;;;;;;3.1;1.2;;;;;;;27.86;16.10156;923.6883;;;;
2019/04/03 09:22:14;;;;;;;1.4;1.1;;;;;;;28.02;15.16895;923.5965;;;;
2019/04/03 09:24:39;;;;;;;1.5;1.4;;;;;;;28.25;16.62695;923.5931;;;;
2019/04/03 09:27:04;;;;;;;4;1.3;;;;;;;27.01;18.4541;923.5265;;;;
2019/04/03 09:29:29;;;;;;;2.8;1.3;;;;;;;26.54;17.60645;923.4504;;;;
2019/04/03 09:31:54;;;;;;;4.1;1.5;;;;;;;25.58;19.02148;923.4866;;;;
2019/04/03 09:34:19;;;;;;;4;1.4;;;;;;;24.14;20.90332;923.4213;;;;
2019/04/03 09:36:46;;;;;;;5.2;1.8;;;;;;;24.05;22.79492;923.4149;;;;
2019/04/03 09:39:12;;;;;;;3.7;1.9;;;;;;;24.02;22.14648;923.3549;;;;
2019/04/03 09:41:36;;;;;;;4;2;;;;;;;23.11;24.00391;923.3577;;;;
2019/04/03 09:44:01;;;;;;;2;1.5;;;;;;;23.78;19.72168;923.3965;;;;
2019/04/03 09:46:26;;;;;;;3.7;1.6;;;;;;;25.34;21.44336;923.3694;;;;
2019/04/03 09:48:51;;;;;;;2.7;1.4;;;;;;;26.74;17.94531;923.1961;;;;
2019/04/03 09:51:17;;;;;;;1.8;1.5;;;;;;;27.47;17.7373;923.233;;;;
2019/04/03 09:53:43;;;;;;;3.7;1.4;;;;;;;27.31;16.49707;923.2365;;;;
2019/04/03 09:56:11;;;;;;;3.2;1.3;;;;;;;27.94;16.33105;923.2405;;;;
2019/04/03 09:58:34;;;;;;;2.1;1.6;;;;;;;27.4;16.0498;923.1578;;;;
2019/04/03 10:00:59;;;;;;;2.9;1.6;;;;;;;25.55;17.7793;923.1359;;;;
2019/04/03 10:03:24;;;;;;;1.5;1.2;;;;;;;25.8;18.27441;923.0912;;;;
2019/04/03 10:05:49;;;;;;;2.5;1.4;;;;;;;24.9;18.95703;923.0508;;;;
2019/04/03 10:08:15;;;;;;;3.4;1.6;;;;;;;23.32;21.19434;923.1191;;;;
2019/04/03 10:10:40;;;;;;;2.7;1.5;;;;;;;22.14;21.13867;923.0287;;;;
2019/04/03 10:13:06;;;;;;;3.1;1.6;;;;;;;21.45;22.8252;923.0081;;;;
2019/04/03 10:15:31;;;;;;;2.6;1.7;;;;;;;21.71;21.31641;922.9439;;;;
2019/04/03 10:17:58;;;;;;;3.7;1.8;;;;;;;23.15;21.65625;922.8484;;;;
2019/04/03 10:20:21;;;;;;;2.3;1.7;;;;;;;23.83;21.79492;922.8766;;;;
2019/04/03 10:22:48;;;;;;;2.4;1.7;;;;;;;24.87;19.32129;922.8686;;;;
2019/04/03 10:25:13;;;;;;;4.2;1.6;;;;;;;24.76;18.64453;922.8273;;;;
2019/04/03 10:27:38;;;;;;;4;1.6;;;;;;;25.21;18.20313;922.7888;;;;
2019/04/03 10:30:04;;;;;;;3.7;1.7;;;;;;;26.07;16.40527;922.8046;;;;
2019/04/03 10:32:28;;;;;;;15.1;2.1;;;;;;;25.07;17.64258;922.6529;;;;
2019/04/03 10:34:53;;;;;;;4.9;1.8;;;;;;;24.88;18.13086;922.6719;;;;
2019/04/03 10:37:18;;;;;;;3.6;1.6;;;;;;;25.78;17.63574;922.5552;;;;
2019/04/03 10:39:44;;;;;;;2.1;1.6;;;;;;;26.82;17.49805;922.4802;;;;
2019/04/03 10:42:09;;;;;;;4.6;1.6;;;;;;;28.01;16.03613;922.5165;;;;
2019/04/03 10:44:34;;;;;;;2;1.5;;;;;;;26.96;16.38965;922.4458;;;;
2019/04/03 10:46:59;;;;;;;3.5;1.6;;;;;;;28.36;15.13281;922.4109;;;;
2019/04/03 10:49:24;;;;;;;2.6;1.5;;;;;;;27.72;16.9873;922.4089;;;;
2019/04/03 10:51:49;;;;;;;1.6;1.5;;;;;;;26.09;16.28711;922.465;;;;
2019/04/03 10:54:14;;;;;;;4.1;1.6;;;;;;;24.04;18.15527;922.3766;;;;
2019/04/03 10:56:40;;;;;;;2;1.6;;;;;;;25.39;17.64355;922.3481;;;;
2019/04/03 10:59:07;;;;;;;3.9;1.7;;;;;;;26.36;16.30859;922.2991;;;;
2019/04/03 11:01:30;;;;;;;3.3;1.5;;;;;;;27.3;15.33496;922.3747;;;;
2019/04/03 11:03:58;;;;;;;5.2;1.6;;;;;;;25.25;19.17285;922.3206;;;;
2019/04/03 11:06:23;;;;;;;2;1.4;;;;;;;25.93;18.41016;922.3203;;;;
2019/04/03 11:08:48;;;;;;;1.6;1.4;;;;;;;23.78;19.72168;922.1298;;;;
2019/04/03 11:11:13;;;;;;;9.3;1.7;;;;;;;23.29;21.09863;922.2003;;;;
2019/04/03 11:13:39;;;;;;;4.7;1.7;;;;;;;25.21;18.69824;922.1761;;;;
2019/04/03 11:16:04;;;;;;;6.4;1.3;;;;;;;28.25;16.65137;922.1041;;;;
2019/04/03 11:18:29;;;;;;;5.4;1.4;;;;;;;26.82;15.43652;922.032;;;;
2019/04/03 11:20:55;;;;;;;3.1;1.3;;;;;;;25.27;16.38672;922.0872;;;;
2019/04/03 11:23:22;;;;;;;3;1.1;;;;;;;25.45;16.18164;922.0375;;;;
2019/04/03 11:25:47;;;;;;;9.9;1.1;;;;;;;26.63;16.16504;921.9877;;;;
2019/04/03 11:28:12;;;;;;;5.4;1.2;;;;;;;25.36;17.44141;921.9924;;;;
2019/04/03 11:30:40;;;;;;;3.5;1.1;;;;;;;26.14;15.03516;921.9305;;;;
2019/04/03 11:33:02;;;;;;;1.7;1.1;;;;;;;25.83;15.14258;921.9428;;;;
2019/04/03 11:35:28;;;;;;;3.3;1;;;;;;;27.6;14.79883;921.8203;;;;
2019/04/03 11:37:53;;;;;;;3.2;1.1;;;;;;;28.77;13.14844;921.8995;;;;
2019/04/03 11:40:19;;;;;;;2.9;1.1;;;;;;;24.42;16.32031;921.8533;;;;
2019/04/03 11:42:44;;;;;;;2.8;1.2;;;;;;;24.54;16.45508;921.9453;;;;
2019/04/03 11:45:09;;;;;;;3;1.3;;;;;;;25.18;15.81738;921.8764;;;;
2019/04/03 11:47:34;;;;;;;5.9;1.4;;;;;;;26.25;14.89648;921.8145;;;;
2019/04/03 11:49:59;;;;;;;3.6;1;;;;;;;27.68;13.62695;921.8233;;;;
2019/04/03 11:52:24;;;;;;;3.2;1;;;;;;;27.52;13.59766;921.7747;;;;
2019/04/03 11:54:52;;;;;;;5;1.1;;;;;;;26.32;16.05957;921.7742;;;;
2019/04/03 11:57:15;;;;;;;4.2;1;;;;;;;27.95;13.08887;921.6495;;;;
2019/04/03 11:59:40;;;;;;;3.2;1;;;;;;;27.86;13.13379;921.6409;;;;
2019/04/03 12:02:05;;;;;;;1.6;1;;;;;;;28.42;13.48242;921.6617;;;;
2019/04/03 12:04:30;;;;;;;2.6;1.1;;;;;;;29.17;12.96875;921.6731;;;;
2019/04/03 12:06:56;;;;;;;2.9;1.1;;;;;;;30.66;12.30664;921.5724;;;;
2019/04/03 12:09:21;;;;;;;4.6;1.1;;;;;;;30.52;11.75391;921.6677;;;;
2019/04/03 12:11:46;;;;;;;1.3;1.1;;;;;;;28.65;14.5127;921.5471;;;;
2019/04/03 12:14:11;;;;;;;3;1.2;;;;;;;26.69;15.20703;921.4943;;;;
2019/04/03 12:16:36;;;;;;;1;0.9;;;;;;;26.46;15.80371;921.5144;;;;
2019/04/03 12:19:01;;;;;;;3.3;1.1;;;;;;;25.16;18.12988;921.5156;;;;
2019/04/03 12:21:29;;;;;;;2.9;1.2;;;;;;;24.32;17.75488;921.4114;;;;
2019/04/03 12:23:54;;;;;;;8.1;1.3;;;;;;;22.82;20.25391;921.3801;;;;
2019/04/03 12:26:19;;;;;;;5.5;1.3;;;;;;;22.79;20.89844;921.315;;;;
2019/04/03 12:28:44;;;;;;;2.4;1.1;;;;;;;24.54;15.87695;921.4037;;;;
2019/04/03 12:31:13;;;;;;;1.6;1.1;;;;;;;25.22;17.18848;921.4877;;;;
2019/04/03 12:33:34;;;;;;;5.1;1.2;;;;;;;25.64;15.67969;921.4033;;;;
2019/04/03 12:36:00;;;;;;;3.5;1.1;;;;;;;25.76;16.25195;921.3499;;;;
2019/04/03 12:38:25;;;;;;;2.7;1;;;;;;;27.24;15.43945;921.2877;;;;
2019/04/03 12:40:50;;;;;;;5.6;1.3;;;;;;;24.31;18.80273;921.3828;;;;
2019/04/03 12:43:15;;;;;;;4.1;1;;;;;;;24.12;17.75879;921.2598;;;;
2019/04/03 12:45:40;;;;;;;7.3;1.3;;;;;;;23.54;19.47559;921.2667;;;;
2019/04/03 12:48:05;;;;;;;3.1;1.2;;;;;;;24.68;17.19141;921.3091;;;;
2019/04/03 12:50:30;;;;;;;2.7;1;;;;;;;23.52;18.78125;921.2173;;;;
2019/04/03 12:52:56;;;;;;;2;1.1;;;;;;;24.57;16.65625;921.3019;;;;
2019/04/03 12:55:21;;;;;;;2.8;1;;;;;;;23.95;17.46875;921.3164;;;;
2019/04/03 12:57:46;;;;;;;2.3;1.2;;;;;;;22.77;19.07813;921.2319;;;;
2019/04/03 13:00:11;;;;;;;7.6;1.2;;;;;;;21.14;21.99121;921.2177;;;;
2019/04/03 13:02:36;;;;;;;8.5;1.5;;;;;;;20.42;22.49316;921.2777;;;;
2019/04/03 13:05:02;;;;;;;17.1;1.7;;;;;;;21.18;22.41406;920.999;;;;
2019/04/03 13:07:28;;;;;;;9.2;1.7;;;;;;;19.99;23.83496;921.0881;;;;
2019/04/03 13:09:53;;;;;;;2.7;1.3;;;;;;;20.09;22.74414;921.0067;;;;
2019/04/03 13:12:18;;;;;;;2.2;1.4;;;;;;;19.48;24.19238;921.0174;;;;
2019/04/03 13:14:43;;;;;;;3.5;1.4;;;;;;;19.93;24.18262;920.9377;;;;
2019/04/03 13:17:08;;;;;;;17.2;1.7;;;;;;;18.91;24.19629;920.9128;;;;
2019/04/03 13:19:33;;;;;;;3.6;1.4;;;;;;;19.51;25.60449;921.0862;;;;
2019/04/03 13:22:00;;;;;;;3.8;1.3;;;;;;;19.94;25.50195;920.9959;;;;
2019/04/03 13:24:24;;;;;;;2.3;1.1;;;;;;;19.55;23.85938;920.972;;;;
2019/04/03 13:26:49;;;;;;;4.2;1.2;;;;;;;19.79;24.89746;920.9425;;;;
2019/04/03 13:29:14;;;;;;;3.1;1.2;;;;;;;19.37;25.03711;920.9863;;;;
2019/04/03 13:31:39;;;;;;;24.1;1.8;;;;;;;19.28;24.93945;920.94;;;;
2019/04/03 13:34:04;;;;;;;12.3;1.5;;;;;;;19.12;25.09277;920.8926;;;;
2019/04/03 13:36:32;;;;;;;2.2;1.2;;;;;;;18.61;26.41309;920.8589;;;;
2019/04/03 13:38:54;;;;;;;4.6;1.2;;;;;;;19.06;26.37109;920.9061;;;;
2019/04/03 13:41:19;;;;;;;4.2;1.1;;;;;;;19.13;25.2334;920.9289;;;;
2019/04/03 13:43:45;;;;;;;2.5;1.3;;;;;;;19.62;25.08691;920.8229;;;;
2019/04/03 13:46:10;;;;;;;7;1.3;;;;;;;18.67;25.96289;920.7687;;;;
2019/04/03 13:48:37;;;;;;;3.8;1.2;;;;;;;17.92;27.34766;920.7572;;;;
2019/04/03 13:51:02;;;;;;;5;1.4;;;;;;;17.73;26.98633;920.7614;;;;
2019/04/03 13:53:28;;;;;;;3.2;1.2;;;;;;;18.12;26.82617;920.762;;;;
2019/04/03 13:55:53;;;;;;;6.6;1.3;;;;;;;17.74;27.34766;920.7512;;;;
2019/04/03 13:58:18;;;;;;;2.5;1.1;;;;;;;17.85;28.27246;920.7123;;;;
2019/04/03 14:00:43;;;;;;;3.8;1.3;;;;;;;17.66;27.8418;920.6646;;;;
2019/04/03 14:03:08;;;;;;;3.9;1.1;;;;;;;17.64;27.39941;920.5637;;;;
2019/04/03 14:05:34;;;;;;;4.3;1.4;;;;;;;17.28;28.45508;920.7381;;;;
2019/04/03 14:07:59;;;;;;;2.5;1.3;;;;;;;17.11;29.03516;920.6819;;;;
2019/04/03 14:10:24;;;;;;;5.7;1.7;;;;;;;17.7;27.19434;920.5856;;;;
2019/04/03 14:12:49;;;;;;;2.6;1.2;;;;;;;17.3;27.03027;920.5377;;;;